sensor_id;sensor_type;location;lat;lon;timestamp;P1;durP1;ratioP1;P2;durP2;ratioP2
36371;SDS011;22398;51.346;12.372;2023-03-14T00:04:10;3.45;;;0.93;;
36371;SDS011;22398;51.346;12.372;2023-03-14T00:09:13;1.70;;;0.70;;
36371;SDS011;22398;51.346;12.372;2023-03-14T00:14:17;1.00;;;0.60;;
36371;SDS011;22398;51.346;12.372;2023-03-14T00:19:22;0.95;;;0.60;;
36371;SDS011;22398;51.346;12.372;2023-03-14T00:24:25;4.80;;;0.80;;
36371;SDS011;22398;51.346;12.372;2023-03-14T00:29:29;1.38;;;0.77;;
36371;SDS011;22398;51.346;12.372;2023-03-14T00:34:33;3.63;;;0.77;;
36371;SDS011;22398;51.346;12.372;2023-03-14T00:39:36;0.97;;;0.50;;
36371;SDS011;22398;51.346;12.372;2023-03-14T00:44:40;0.55;;;0.40;;
36371;SDS011;22398;51.346;12.372;2023-03-14T00:49:45;1.60;;;0.60;;
36371;SDS011;22398;51.346;12.372;2023-03-14T00:54:49;0.88;;;0.57;;
36371;SDS011;22398;51.346;12.372;2023-03-14T00:59:52;0.90;;;0.43;;
36371;SDS011;22398;51.346;12.372;2023-03-14T01:04:57;0.45;;;0.40;;
36371;SDS011;22398;51.346;12.372;2023-03-14T01:10:00;1.52;;;0.88;;
36371;SDS011;22398;51.346;12.372;2023-03-14T01:15:04;3.20;;;0.70;;
36371;SDS011;22398;51.346;12.372;2023-03-14T01:20:11;1.90;;;0.50;;
36371;SDS011;22398;51.346;12.372;2023-03-14T01:25:16;1.85;;;0.57;;
36371;SDS011;22398;51.346;12.372;2023-03-14T01:30:20;5.45;;;3.08;;
36371;SDS011;22398;51.346;12.372;2023-03-14T01:35:24;2.35;;;0.90;;
36371;SDS011;22398;51.346;12.372;2023-03-14T01:40:30;3.70;;;0.52;;
36371;SDS011;22398;51.346;12.372;2023-03-14T01:46:02;1.48;;;0.50;;
36371;SDS011;22398;51.346;12.372;2023-03-14T01:51:24;2.15;;;0.40;;
36371;SDS011;22398;51.346;12.372;2023-03-14T01:56:34;0.52;;;0.47;;
36371;SDS011;22398;51.346;12.372;2023-03-14T02:01:39;1.27;;;0.40;;
36371;SDS011;22398;51.346;12.372;2023-03-14T02:06:50;0.73;;;0.50;;
36371;SDS011;22398;51.346;12.372;2023-03-14T02:12:00;2.15;;;0.50;;
36371;SDS011;22398;51.346;12.372;2023-03-14T02:17:18;2.58;;;0.60;;
36371;SDS011;22398;51.346;12.372;2023-03-14T02:23:02;0.60;;;0.40;;
36371;SDS011;22398;51.346;12.372;2023-03-14T02:28:07;0.30;;;0.28;;
36371;SDS011;22398;51.346;12.372;2023-03-14T02:33:12;2.40;;;0.60;;
36371;SDS011;22398;51.346;12.372;2023-03-14T02:38:20;0.98;;;0.40;;
36371;SDS011;22398;51.346;12.372;2023-03-14T02:43:32;0.20;;;0.20;;
36371;SDS011;22398;51.346;12.372;2023-03-14T02:48:41;2.92;;;0.30;;
36371;SDS011;22398;51.346;12.372;2023-03-14T02:53:50;0.95;;;0.38;;
36371;SDS011;22398;51.346;12.372;2023-03-14T02:58:56;1.17;;;0.52;;
36371;SDS011;22398;51.346;12.372;2023-03-14T03:04:07;1.48;;;0.40;;
36371;SDS011;22398;51.346;12.372;2023-03-14T03:09:11;0.40;;;0.40;;
36371;SDS011;22398;51.346;12.372;2023-03-14T03:14:15;4.00;;;1.35;;
36371;SDS011;22398;51.346;12.372;2023-03-14T03:19:21;1.88;;;0.70;;
36371;SDS011;22398;51.346;12.372;2023-03-14T03:24:24;4.40;;;0.50;;
36371;SDS011;22398;51.346;12.372;2023-03-14T03:29:30;0.75;;;0.40;;
36371;SDS011;22398;51.346;12.372;2023-03-14T03:34:33;4.33;;;0.97;;
36371;SDS011;22398;51.346;12.372;2023-03-14T03:39:38;2.80;;;0.60;;
36371;SDS011;22398;51.346;12.372;2023-03-14T03:44:42;1.15;;;0.50;;
36371;SDS011;22398;51.346;12.372;2023-03-14T03:49:46;0.50;;;0.50;;
36371;SDS011;22398;51.346;12.372;2023-03-14T03:54:50;1.58;;;0.52;;
36371;SDS011;22398;51.346;12.372;2023-03-14T03:59:54;1.02;;;0.35;;
36371;SDS011;22398;51.346;12.372;2023-03-14T04:04:58;1.77;;;0.88;;
36371;SDS011;22398;51.346;12.372;2023-03-14T04:10:01;2.28;;;0.60;;
36371;SDS011;22398;51.346;12.372;2023-03-14T04:15:16;3.03;;;0.73;;
36371;SDS011;22398;51.346;12.372;2023-03-14T04:20:23;3.13;;;0.65;;
36371;SDS011;22398;51.346;12.372;2023-03-14T04:25:26;0.95;;;0.45;;
36371;SDS011;22398;51.346;12.372;2023-03-14T04:30:33;4.03;;;0.75;;
36371;SDS011;22398;51.346;12.372;2023-03-14T04:35:43;2.85;;;0.70;;
36371;SDS011;22398;51.346;12.372;2023-03-14T04:40:48;4.57;;;0.77;;
36371;SDS011;22398;51.346;12.372;2023-03-14T04:45:56;1.08;;;0.40;;
36371;SDS011;22398;51.346;12.372;2023-03-14T04:51:01;3.67;;;0.70;;
36371;SDS011;22398;51.346;12.372;2023-03-14T04:56:07;1.10;;;0.60;;
36371;SDS011;22398;51.346;12.372;2023-03-14T05:01:14;3.60;;;0.70;;
36371;SDS011;22398;51.346;12.372;2023-03-14T05:06:39;2.05;;;0.47;;
36371;SDS011;22398;51.346;12.372;2023-03-14T05:12:01;2.38;;;0.75;;
36371;SDS011;22398;51.346;12.372;2023-03-14T05:17:12;4.88;;;0.70;;
36371;SDS011;22398;51.346;12.372;2023-03-14T05:22:15;4.75;;;0.60;;
36371;SDS011;22398;51.346;12.372;2023-03-14T05:27:55;1.30;;;0.70;;
36371;SDS011;22398;51.346;12.372;2023-03-14T05:33:07;5.15;;;2.00;;
36371;SDS011;22398;51.346;12.372;2023-03-14T05:38:49;3.58;;;0.70;;
36371;SDS011;22398;51.346;12.372;2023-03-14T05:44:01;4.88;;;0.85;;
36371;SDS011;22398;51.346;12.372;2023-03-14T05:49:29;3.65;;;0.70;;
36371;SDS011;22398;51.346;12.372;2023-03-14T05:54:51;8.75;;;1.00;;
36371;SDS011;22398;51.346;12.372;2023-03-14T06:00:11;6.68;;;0.80;;
36371;SDS011;22398;51.346;12.372;2023-03-14T06:05:33;4.03;;;0.77;;
36371;SDS011;22398;51.346;12.372;2023-03-14T06:10:36;3.33;;;1.07;;
36371;SDS011;22398;51.346;12.372;2023-03-14T06:15:40;5.32;;;1.17;;
36371;SDS011;22398;51.346;12.372;2023-03-14T06:20:45;7.30;;;0.80;;
36371;SDS011;22398;51.346;12.372;2023-03-14T06:25:56;3.33;;;1.00;;
36371;SDS011;22398;51.346;12.372;2023-03-14T06:31:00;1.58;;;0.85;;
36371;SDS011;22398;51.346;12.372;2023-03-14T06:36:12;5.10;;;0.98;;
36371;SDS011;22398;51.346;12.372;2023-03-14T06:41:17;3.05;;;0.80;;
36371;SDS011;22398;51.346;12.372;2023-03-14T06:46:23;1.90;;;0.50;;
36371;SDS011;22398;51.346;12.372;2023-03-14T06:51:29;8.13;;;1.23;;
36371;SDS011;22398;51.346;12.372;2023-03-14T06:56:32;5.78;;;1.33;;
36371;SDS011;22398;51.346;12.372;2023-03-14T07:01:36;1.85;;;0.80;;
36371;SDS011;22398;51.346;12.372;2023-03-14T07:06:44;3.15;;;0.82;;
36371;SDS011;22398;51.346;12.372;2023-03-14T07:11:49;4.68;;;1.10;;
36371;SDS011;22398;51.346;12.372;2023-03-14T07:16:53;3.90;;;0.80;;
36371;SDS011;22398;51.346;12.372;2023-03-14T07:21:57;1.70;;;0.88;;
36371;SDS011;22398;51.346;12.372;2023-03-14T07:27:02;7.15;;;0.63;;
36371;SDS011;22398;51.346;12.372;2023-03-14T07:32:06;5.78;;;0.77;;
36371;SDS011;22398;51.346;12.372;2023-03-14T07:37:10;4.50;;;0.77;;
36371;SDS011;22398;51.346;12.372;2023-03-14T07:42:14;3.03;;;0.60;;
36371;SDS011;22398;51.346;12.372;2023-03-14T07:47:28;4.30;;;0.77;;
36371;SDS011;22398;51.346;12.372;2023-03-14T07:52:33;5.53;;;0.93;;
36371;SDS011;22398;51.346;12.372;2023-03-14T07:57:36;3.23;;;1.20;;
36371;SDS011;22398;51.346;12.372;2023-03-14T08:02:39;4.60;;;1.10;;
36371;SDS011;22398;51.346;12.372;2023-03-14T08:07:44;4.57;;;0.73;;
36371;SDS011;22398;51.346;12.372;2023-03-14T08:12:48;3.97;;;0.87;;
36371;SDS011;22398;51.346;12.372;2023-03-14T08:17:51;3.97;;;0.77;;
36371;SDS011;22398;51.346;12.372;2023-03-14T08:22:56;8.25;;;1.40;;
36371;SDS011;22398;51.346;12.372;2023-03-14T08:33:04;1.73;;;0.82;;
36371;SDS011;22398;51.346;12.372;2023-03-14T08:38:08;9.65;;;0.95;;
36371;SDS011;22398;51.346;12.372;2023-03-14T08:43:12;2.05;;;0.70;;
36371;SDS011;22398;51.346;12.372;2023-03-14T08:48:15;4.75;;;1.30;;
36371;SDS011;22398;51.346;12.372;2023-03-14T08:53:20;2.67;;;0.88;;
36371;SDS011;22398;51.346;12.372;2023-03-14T08:58:23;2.40;;;0.90;;
36371;SDS011;22398;51.346;12.372;2023-03-14T09:03:27;2.45;;;1.10;;
36371;SDS011;22398;51.346;12.372;2023-03-14T09:08:32;1.83;;;0.70;;
36371;SDS011;22398;51.346;12.372;2023-03-14T09:13:39;2.03;;;0.65;;
36371;SDS011;22398;51.346;12.372;2023-03-14T09:18:43;1.85;;;0.60;;
36371;SDS011;22398;51.346;12.372;2023-03-14T09:23:47;4.15;;;0.93;;
36371;SDS011;22398;51.346;12.372;2023-03-14T09:28:51;1.75;;;0.63;;
36371;SDS011;22398;51.346;12.372;2023-03-14T09:33:55;3.13;;;0.60;;
36371;SDS011;22398;51.346;12.372;2023-03-14T09:39:00;8.82;;;0.90;;
36371;SDS011;22398;51.346;12.372;2023-03-14T09:44:04;1.80;;;0.70;;
36371;SDS011;22398;51.346;12.372;2023-03-14T09:49:11;3.70;;;1.20;;
36371;SDS011;22398;51.346;12.372;2023-03-14T09:54:34;7.32;;;0.60;;
36371;SDS011;22398;51.346;12.372;2023-03-14T09:59:40;3.30;;;0.80;;
36371;SDS011;22398;51.346;12.372;2023-03-14T10:04:47;6.47;;;0.38;;
36371;SDS011;22398;51.346;12.372;2023-03-14T10:09:54;7.30;;;0.70;;
36371;SDS011;22398;51.346;12.372;2023-03-14T10:14:58;0.55;;;0.40;;
36371;SDS011;22398;51.346;12.372;2023-03-14T10:20:14;9.32;;;0.75;;
36371;SDS011;22398;51.346;12.372;2023-03-14T10:25:36;7.68;;;0.80;;
36371;SDS011;22398;51.346;12.372;2023-03-14T10:30:43;3.28;;;0.60;;
36371;SDS011;22398;51.346;12.372;2023-03-14T10:35:52;10.60;;;1.02;;
36371;SDS011;22398;51.346;12.372;2023-03-14T10:40:59;7.40;;;0.73;;
36371;SDS011;22398;51.346;12.372;2023-03-14T10:46:06;4.47;;;0.80;;
36371;SDS011;22398;51.346;12.372;2023-03-14T10:51:32;1.83;;;0.80;;
36371;SDS011;22398;51.346;12.372;2023-03-14T10:56:37;3.53;;;0.85;;
36371;SDS011;22398;51.346;12.372;2023-03-14T11:01:41;0.85;;;0.50;;
36371;SDS011;22398;51.346;12.372;2023-03-14T11:06:52;2.58;;;0.30;;
36371;SDS011;22398;51.346;12.372;2023-03-14T11:12:03;2.00;;;0.30;;
36371;SDS011;22398;51.346;12.372;2023-03-14T11:17:23;2.90;;;0.75;;
36371;SDS011;22398;51.346;12.372;2023-03-14T11:22:32;4.68;;;0.60;;
36371;SDS011;22398;51.346;12.372;2023-03-14T11:27:43;1.85;;;0.82;;
36371;SDS011;22398;51.346;12.372;2023-03-14T11:32:53;1.95;;;0.55;;
36371;SDS011;22398;51.346;12.372;2023-03-14T11:38:09;2.28;;;0.52;;
36371;SDS011;22398;51.346;12.372;2023-03-14T11:43:18;1.17;;;0.60;;
36371;SDS011;22398;51.346;12.372;2023-03-14T11:48:29;0.40;;;0.30;;
36371;SDS011;22398;51.346;12.372;2023-03-14T11:53:42;3.00;;;0.80;;
36371;SDS011;22398;51.346;12.372;2023-03-14T11:58:54;5.97;;;0.38;;
36371;SDS011;22398;51.346;12.372;2023-03-14T12:04:03;2.38;;;1.30;;
36371;SDS011;22398;51.346;12.372;2023-03-14T12:09:12;4.47;;;0.57;;
36371;SDS011;22398;51.346;12.372;2023-03-14T12:14:23;0.98;;;0.45;;
36371;SDS011;22398;51.346;12.372;2023-03-14T12:19:30;1.60;;;0.55;;
36371;SDS011;22398;51.346;12.372;2023-03-14T12:24:36;1.42;;;0.57;;
36371;SDS011;22398;51.346;12.372;2023-03-14T12:35:22;2.38;;;0.73;;
36371;SDS011;22398;51.346;12.372;2023-03-14T12:40:39;2.47;;;0.80;;
36371;SDS011;22398;51.346;12.372;2023-03-14T12:51:18;3.10;;;0.40;;
36371;SDS011;22398;51.346;12.372;2023-03-14T12:56:26;1.80;;;0.52;;
36371;SDS011;22398;51.346;12.372;2023-03-14T13:01:40;2.15;;;0.47;;
36371;SDS011;22398;51.346;12.372;2023-03-14T13:06:51;1.58;;;0.60;;
36371;SDS011;22398;51.346;12.372;2023-03-14T13:12:00;0.77;;;0.30;;
36371;SDS011;22398;51.346;12.372;2023-03-14T13:17:10;3.92;;;0.50;;
36371;SDS011;22398;51.346;12.372;2023-03-14T13:22:34;0.52;;;0.30;;
36371;SDS011;22398;51.346;12.372;2023-03-14T13:27:40;1.63;;;0.52;;
36371;SDS011;22398;51.346;12.372;2023-03-14T13:32:47;0.45;;;0.20;;
36371;SDS011;22398;51.346;12.372;2023-03-14T13:37:55;1.23;;;0.45;;
36371;SDS011;22398;51.346;12.372;2023-03-14T13:43:14;1.65;;;0.30;;
36371;SDS011;22398;51.346;12.372;2023-03-14T13:48:21;0.20;;;0.20;;
36371;SDS011;22398;51.346;12.372;2023-03-14T13:53:27;1.00;;;0.52;;
36371;SDS011;22398;51.346;12.372;2023-03-14T13:58:31;1.38;;;0.50;;
36371;SDS011;22398;51.346;12.372;2023-03-14T14:03:37;0.20;;;0.20;;
36371;SDS011;22398;51.346;12.372;2023-03-14T14:08:43;5.38;;;0.38;;
36371;SDS011;22398;51.346;12.372;2023-03-14T14:13:47;1.20;;;0.40;;
36371;SDS011;22398;51.346;12.372;2023-03-14T14:18:53;0.57;;;0.50;;
36371;SDS011;22398;51.346;12.372;2023-03-14T14:23:58;0.25;;;0.20;;
36371;SDS011;22398;51.346;12.372;2023-03-14T14:29:03;0.20;;;0.20;;
36371;SDS011;22398;51.346;12.372;2023-03-14T14:34:18;1.75;;;0.30;;
36371;SDS011;22398;51.346;12.372;2023-03-14T14:39:23;1.55;;;0.50;;
36371;SDS011;22398;51.346;12.372;2023-03-14T14:44:28;0.77;;;0.60;;
36371;SDS011;22398;51.346;12.372;2023-03-14T14:49:36;0.43;;;0.30;;
36371;SDS011;22398;51.346;12.372;2023-03-14T14:54:42;2.05;;;0.85;;
36371;SDS011;22398;51.346;12.372;2023-03-14T14:59:48;1.10;;;0.63;;
36371;SDS011;22398;51.346;12.372;2023-03-14T15:04:56;0.60;;;0.50;;
36371;SDS011;22398;51.346;12.372;2023-03-14T15:09:59;1.27;;;0.77;;
36371;SDS011;22398;51.346;12.372;2023-03-14T15:15:03;1.20;;;0.40;;
36371;SDS011;22398;51.346;12.372;2023-03-14T15:20:11;1.02;;;0.52;;
36371;SDS011;22398;51.346;12.372;2023-03-14T15:25:16;0.00;;;0.00;;
36371;SDS011;22398;51.346;12.372;2023-03-14T15:30:39;0.00;;;0.00;;
36371;SDS011;22398;51.346;12.372;2023-03-14T15:35:44;0.00;;;0.00;;
36371;SDS011;22398;51.346;12.372;2023-03-14T15:40:48;0.00;;;0.00;;
36371;SDS011;22398;51.346;12.372;2023-03-14T15:45:52;0.00;;;0.00;;
36371;SDS011;22398;51.346;12.372;2023-03-14T15:50:59;0.00;;;0.00;;
36371;SDS011;22398;51.346;12.372;2023-03-14T15:56:02;0.00;;;0.00;;
36371;SDS011;22398;51.346;12.372;2023-03-14T16:01:07;0.00;;;0.00;;
36371;SDS011;22398;51.346;12.372;2023-03-14T16:06:12;0.00;;;0.00;;
36371;SDS011;22398;51.346;12.372;2023-03-14T16:11:16;0.00;;;0.00;;
36371;SDS011;22398;51.346;12.372;2023-03-14T16:16:23;0.00;;;0.00;;
36371;SDS011;22398;51.346;12.372;2023-03-14T16:21:28;0.00;;;0.00;;
36371;SDS011;22398;51.346;12.372;2023-03-14T16:26:31;0.00;;;0.00;;
36371;SDS011;22398;51.346;12.372;2023-03-14T16:31:38;0.00;;;0.00;;
36371;SDS011;22398;51.346;12.372;2023-03-14T16:36:45;0.00;;;0.00;;
36371;SDS011;22398;51.346;12.372;2023-03-14T16:41:49;0.00;;;0.00;;
36371;SDS011;22398;51.346;12.372;2023-03-14T16:46:58;0.00;;;0.00;;
36371;SDS011;22398;51.346;12.372;2023-03-14T16:52:04;0.00;;;0.00;;
36371;SDS011;22398;51.346;12.372;2023-03-14T16:57:09;0.00;;;0.00;;
36371;SDS011;22398;51.346;12.372;2023-03-14T17:02:12;0.00;;;0.00;;
36371;SDS011;22398;51.346;12.372;2023-03-14T17:07:18;0.00;;;0.00;;
36371;SDS011;22398;51.346;12.372;2023-03-14T17:12:22;0.00;;;0.00;;
36371;SDS011;22398;51.346;12.372;2023-03-14T17:17:25;0.00;;;0.00;;
36371;SDS011;22398;51.346;12.372;2023-03-14T17:22:31;0.00;;;0.00;;
36371;SDS011;22398;51.346;12.372;2023-03-14T17:27:34;0.00;;;0.00;;
36371;SDS011;22398;51.346;12.372;2023-03-14T17:32:38;0.00;;;0.00;;
36371;SDS011;22398;51.346;12.372;2023-03-14T17:37:43;0.00;;;0.00;;
36371;SDS011;22398;51.346;12.372;2023-03-14T17:42:47;0.00;;;0.00;;
36371;SDS011;22398;51.346;12.372;2023-03-14T17:47:50;0.00;;;0.00;;
36371;SDS011;22398;51.346;12.372;2023-03-14T17:52:56;0.00;;;0.00;;
36371;SDS011;22398;51.346;12.372;2023-03-14T17:58:00;0.00;;;0.00;;
36371;SDS011;22398;51.346;12.372;2023-03-14T18:03:03;0.00;;;0.00;;
36371;SDS011;22398;51.346;12.372;2023-03-14T18:08:10;0.00;;;0.00;;
36371;SDS011;22398;51.346;12.372;2023-03-14T18:13:14;0.00;;;0.00;;
36371;SDS011;22398;51.346;12.372;2023-03-14T18:18:18;0.00;;;0.00;;
36371;SDS011;22398;51.346;12.372;2023-03-14T18:23:23;0.00;;;0.00;;
36371;SDS011;22398;51.346;12.372;2023-03-14T18:28:26;0.00;;;0.00;;
36371;SDS011;22398;51.346;12.372;2023-03-14T18:33:30;0.00;;;0.00;;
36371;SDS011;22398;51.346;12.372;2023-03-14T18:38:39;0.00;;;0.00;;
36371;SDS011;22398;51.346;12.372;2023-03-14T18:43:44;0.10;;;0.10;;
36371;SDS011;22398;51.346;12.372;2023-03-14T18:48:48;0.00;;;0.00;;
36371;SDS011;22398;51.346;12.372;2023-03-14T18:53:58;0.00;;;0.00;;
36371;SDS011;22398;51.346;12.372;2023-03-14T18:59:11;0.00;;;0.00;;
36371;SDS011;22398;51.346;12.372;2023-03-14T19:04:15;0.00;;;0.00;;
36371;SDS011;22398;51.346;12.372;2023-03-14T19:09:20;0.00;;;0.00;;
36371;SDS011;22398;51.346;12.372;2023-03-14T19:14:23;0.00;;;0.00;;
36371;SDS011;22398;51.346;12.372;2023-03-14T19:19:27;0.00;;;0.00;;
36371;SDS011;22398;51.346;12.372;2023-03-14T19:24:31;0.00;;;0.00;;
36371;SDS011;22398;51.346;12.372;2023-03-14T19:29:35;0.00;;;0.00;;
36371;SDS011;22398;51.346;12.372;2023-03-14T19:34:42;0.00;;;0.00;;
36371;SDS011;22398;51.346;12.372;2023-03-14T19:39:47;0.00;;;0.00;;
36371;SDS011;22398;51.346;12.372;2023-03-14T19:44:51;0.00;;;0.00;;
36371;SDS011;22398;51.346;12.372;2023-03-14T19:49:56;0.00;;;0.00;;
36371;SDS011;22398;51.346;12.372;2023-03-14T19:55:01;0.00;;;0.00;;
36371;SDS011;22398;51.346;12.372;2023-03-14T20:00:05;0.00;;;0.00;;
36371;SDS011;22398;51.346;12.372;2023-03-14T20:05:17;0.00;;;0.00;;
36371;SDS011;22398;51.346;12.372;2023-03-14T20:10:22;21.92;;;2.17;;
36371;SDS011;22398;51.346;12.372;2023-03-14T20:15:25;10.63;;;2.47;;
36371;SDS011;22398;51.346;12.372;2023-03-14T20:20:29;20.25;;;3.05;;
36371;SDS011;22398;51.346;12.372;2023-03-14T20:25:33;13.27;;;2.53;;
36371;SDS011;22398;51.346;12.372;2023-03-14T20:30:38;10.45;;;1.90;;
36371;SDS011;22398;51.346;12.372;2023-03-14T20:35:41;15.55;;;2.67;;
36371;SDS011;22398;51.346;12.372;2023-03-14T20:40:46;9.88;;;2.03;;
36371;SDS011;22398;51.346;12.372;2023-03-14T20:45:50;11.23;;;1.83;;
36371;SDS011;22398;51.346;12.372;2023-03-14T20:50:55;10.68;;;1.98;;
36371;SDS011;22398;51.346;12.372;2023-03-14T20:56:00;17.88;;;2.33;;
36371;SDS011;22398;51.346;12.372;2023-03-14T21:01:03;13.60;;;2.03;;
36371;SDS011;22398;51.346;12.372;2023-03-14T21:06:07;11.07;;;1.98;;
36371;SDS011;22398;51.346;12.372;2023-03-14T21:11:12;17.85;;;2.30;;
36371;SDS011;22398;51.346;12.372;2023-03-14T21:16:15;8.80;;;1.73;;
36371;SDS011;22398;51.346;12.372;2023-03-14T21:21:19;9.40;;;1.50;;
36371;SDS011;22398;51.346;12.372;2023-03-14T21:26:24;10.73;;;1.55;;
36371;SDS011;22398;51.346;12.372;2023-03-14T21:31:27;7.20;;;1.40;;
36371;SDS011;22398;51.346;12.372;2023-03-14T21:36:31;5.22;;;1.10;;
36371;SDS011;22398;51.346;12.372;2023-03-14T21:41:35;16.65;;;2.22;;
36371;SDS011;22398;51.346;12.372;2023-03-14T21:46:39;4.23;;;1.30;;
36371;SDS011;22398;51.346;12.372;2023-03-14T21:51:42;11.45;;;1.55;;
36371;SDS011;22398;51.346;12.372;2023-03-14T21:56:47;7.38;;;1.67;;
36371;SDS011;22398;51.346;12.372;2023-03-14T22:01:51;7.20;;;0.88;;
36371;SDS011;22398;51.346;12.372;2023-03-14T22:06:56;8.68;;;2.22;;
36371;SDS011;22398;51.346;12.372;2023-03-14T22:12:01;7.15;;;1.55;;
36371;SDS011;22398;51.346;12.372;2023-03-14T22:17:04;6.20;;;1.67;;
36371;SDS011;22398;51.346;12.372;2023-03-14T22:22:08;7.72;;;1.85;;
36371;SDS011;22398;51.346;12.372;2023-03-14T22:27:13;6.55;;;2.00;;
36371;SDS011;22398;51.346;12.372;2023-03-14T22:32:16;8.30;;;1.95;;
36371;SDS011;22398;51.346;12.372;2023-03-14T22:37:20;7.20;;;1.10;;
36371;SDS011;22398;51.346;12.372;2023-03-14T22:42:25;6.78;;;1.85;;
36371;SDS011;22398;51.346;12.372;2023-03-14T22:47:28;16.80;;;1.85;;
36371;SDS011;22398;51.346;12.372;2023-03-14T22:52:31;12.70;;;2.35;;
36371;SDS011;22398;51.346;12.372;2023-03-14T22:57:36;8.85;;;1.20;;
36371;SDS011;22398;51.346;12.372;2023-03-14T23:02:40;8.93;;;1.50;;
36371;SDS011;22398;51.346;12.372;2023-03-14T23:07:44;10.82;;;1.92;;
36371;SDS011;22398;51.346;12.372;2023-03-14T23:12:48;9.18;;;2.33;;
36371;SDS011;22398;51.346;12.372;2023-03-14T23:17:52;6.55;;;1.50;;
36371;SDS011;22398;51.346;12.372;2023-03-14T23:22:55;6.22;;;1.38;;
36371;SDS011;22398;51.346;12.372;2023-03-14T23:28:00;7.10;;;1.45;;
36371;SDS011;22398;51.346;12.372;2023-03-14T23:33:03;9.37;;;1.73;;
36371;SDS011;22398;51.346;12.372;2023-03-14T23:38:07;8.07;;;1.88;;
36371;SDS011;22398;51.346;12.372;2023-03-14T23:43:13;12.40;;;1.63;;
36371;SDS011;22398;51.346;12.372;2023-03-14T23:48:16;7.72;;;1.52;;
36371;SDS011;22398;51.346;12.372;2023-03-14T23:53:19;2.35;;;1.25;;
36371;SDS011;22398;51.346;12.372;2023-03-14T23:58:24;9.68;;;1.70;;
